sensor_id;sensor_type;location;lat;lon;timestamp;noise_LAeq;noise_LA_min;noise_LA_max;noise_LA01;noise_LA95
66747;Laerm;53658;50.742;10.864;2024-01-06T00:01:53;37.76;33.90;43.58;;
66747;Laerm;53658;50.742;10.864;2024-01-06T00:04:18;42.20;34.31;75.79;;
66747;Laerm;53658;50.742;10.864;2024-01-06T00:06:44;38.10;33.44;41.22;;
66747;Laerm;53658;50.742;10.864;2024-01-06T00:09:10;38.09;34.31;40.98;;
66747;Laerm;53658;50.742;10.864;2024-01-06T00:11:36;38.06;33.90;40.71;;
66747;Laerm;53658;50.742;10.864;2024-01-06T00:14:02;38.01;33.90;40.62;;
66747;Laerm;53658;50.742;10.864;2024-01-06T00:16:28;37.94;33.90;40.89;;
66747;Laerm;53658;50.742;10.864;2024-01-06T00:18:53;37.79;32.93;40.62;;
66747;Laerm;53658;50.742;10.864;2024-01-06T00:21:19;37.59;33.44;40.53;;
66747;Laerm;53658;50.742;10.864;2024-01-06T00:23:45;37.59;33.44;41.46;;
66747;Laerm;53658;50.742;10.864;2024-01-06T00:26:11;37.57;32.35;46.93;;
66747;Laerm;53658;50.742;10.864;2024-01-06T00:28:38;37.53;32.93;44.43;;
66747;Laerm;53658;50.742;10.864;2024-01-06T00:31:05;37.61;33.44;40.71;;
66747;Laerm;53658;50.742;10.864;2024-01-06T00:33:31;37.92;32.35;46.95;;
66747;Laerm;53658;50.742;10.864;2024-01-06T00:35:57;37.57;32.93;52.72;;
66747;Laerm;53658;50.742;10.864;2024-01-06T00:38:23;37.50;33.44;40.80;;
66747;Laerm;53658;50.742;10.864;2024-01-06T00:40:48;37.52;31.68;40.23;;
66747;Laerm;53658;50.742;10.864;2024-01-06T00:43:14;37.52;33.90;40.53;;
66747;Laerm;53658;50.742;10.864;2024-01-06T00:45:40;37.50;32.93;40.33;;
66747;Laerm;53658;50.742;10.864;2024-01-06T00:48:06;37.50;32.93;40.89;;
66747;Laerm;53658;50.742;10.864;2024-01-06T00:50:32;37.44;30.89;40.03;;
66747;Laerm;53658;50.742;10.864;2024-01-06T00:52:58;37.41;32.35;40.13;;
66747;Laerm;53658;50.742;10.864;2024-01-06T00:55:23;37.39;33.44;40.13;;
66747;Laerm;53658;50.742;10.864;2024-01-06T00:57:50;37.40;32.93;40.13;;
66747;Laerm;53658;50.742;10.864;2024-01-06T01:00:16;43.67;33.44;78.40;;
66747;Laerm;53658;50.742;10.864;2024-01-06T01:02:42;37.39;32.93;40.03;;
66747;Laerm;53658;50.742;10.864;2024-01-06T01:05:08;37.41;32.35;42.03;;
66747;Laerm;53658;50.742;10.864;2024-01-06T01:07:35;37.34;32.00;40.23;;
66747;Laerm;53658;50.742;10.864;2024-01-06T01:10:01;37.35;33.44;40.13;;
66747;Laerm;53658;50.742;10.864;2024-01-06T01:12:27;37.32;33.09;39.92;;
66747;Laerm;53658;50.742;10.864;2024-01-06T01:14:53;37.39;31.68;40.43;;
66747;Laerm;53658;50.742;10.864;2024-01-06T01:17:19;37.38;32.35;40.43;;
66747;Laerm;53658;50.742;10.864;2024-01-06T01:19:45;37.34;32.35;40.53;;
66747;Laerm;53658;50.742;10.864;2024-01-06T01:22:11;37.56;32.35;60.93;;
66747;Laerm;53658;50.742;10.864;2024-01-06T01:24:38;37.30;32.93;40.13;;
66747;Laerm;53658;50.742;10.864;2024-01-06T01:27:04;38.90;32.93;64.37;;
66747;Laerm;53658;50.742;10.864;2024-01-06T01:29:30;37.45;33.90;40.23;;
66747;Laerm;53658;50.742;10.864;2024-01-06T01:31:56;37.35;32.35;40.33;;
66747;Laerm;53658;50.742;10.864;2024-01-06T01:34:21;37.34;30.89;40.13;;
66747;Laerm;53658;50.742;10.864;2024-01-06T01:36:47;37.34;32.35;42.59;;
66747;Laerm;53658;50.742;10.864;2024-01-06T01:39:13;37.57;32.93;61.84;;
66747;Laerm;53658;50.742;10.864;2024-01-06T01:41:40;37.30;32.35;39.92;;
66747;Laerm;53658;50.742;10.864;2024-01-06T01:44:06;37.29;32.93;40.23;;
66747;Laerm;53658;50.742;10.864;2024-01-06T01:46:32;37.27;30.89;40.43;;
66747;Laerm;53658;50.742;10.864;2024-01-06T01:49:00;37.28;32.35;40.13;;
66747;Laerm;53658;50.742;10.864;2024-01-06T01:51:29;37.29;32.93;40.03;;
66747;Laerm;53658;50.742;10.864;2024-01-06T01:53:57;37.24;32.93;40.03;;
66747;Laerm;53658;50.742;10.864;2024-01-06T01:56:24;37.20;32.35;39.81;;
66747;Laerm;53658;50.742;10.864;2024-01-06T01:58:52;37.20;30.89;40.03;;
66747;Laerm;53658;50.742;10.864;2024-01-06T02:01:18;37.22;32.35;40.23;;
66747;Laerm;53658;50.742;10.864;2024-01-06T02:03:45;37.21;30.89;40.33;;
66747;Laerm;53658;50.742;10.864;2024-01-06T02:06:12;37.20;32.35;40.03;;
66747;Laerm;53658;50.742;10.864;2024-01-06T02:08:38;37.43;32.35;57.61;;
66747;Laerm;53658;50.742;10.864;2024-01-06T02:11:05;37.18;31.68;40.03;;
66747;Laerm;53658;50.742;10.864;2024-01-06T02:13:35;37.19;31.68;40.03;;
66747;Laerm;53658;50.742;10.864;2024-01-06T02:16:02;37.17;32.35;39.92;;
66747;Laerm;53658;50.742;10.864;2024-01-06T02:18:28;37.19;30.89;40.03;;
66747;Laerm;53658;50.742;10.864;2024-01-06T02:20:58;37.15;30.89;40.23;;
66747;Laerm;53658;50.742;10.864;2024-01-06T02:23:25;37.15;32.35;39.81;;
66747;Laerm;53658;50.742;10.864;2024-01-06T02:25:51;37.26;32.35;53.84;;
66747;Laerm;53658;50.742;10.864;2024-01-06T02:28:17;37.20;31.33;40.13;;
66747;Laerm;53658;50.742;10.864;2024-01-06T02:30:43;37.20;31.68;40.03;;
66747;Laerm;53658;50.742;10.864;2024-01-06T02:33:09;37.20;23.90;40.03;;
66747;Laerm;53658;50.742;10.864;2024-01-06T02:35:35;37.17;31.68;39.70;;
66747;Laerm;53658;50.742;10.864;2024-01-06T02:38:01;37.20;32.35;40.43;;
66747;Laerm;53658;50.742;10.864;2024-01-06T02:40:27;37.18;32.35;40.13;;
66747;Laerm;53658;50.742;10.864;2024-01-06T02:42:53;37.18;32.35;40.23;;
66747;Laerm;53658;50.742;10.864;2024-01-06T02:45:19;37.15;31.68;40.13;;
66747;Laerm;53658;50.742;10.864;2024-01-06T02:47:45;37.17;31.68;40.13;;
66747;Laerm;53658;50.742;10.864;2024-01-06T02:50:11;37.20;29.92;40.23;;
66747;Laerm;53658;50.742;10.864;2024-01-06T02:52:37;37.12;31.68;40.13;;
66747;Laerm;53658;50.742;10.864;2024-01-06T02:55:03;37.13;30.89;39.70;;
66747;Laerm;53658;50.742;10.864;2024-01-06T02:57:30;37.08;31.68;39.92;;
66747;Laerm;53658;50.742;10.864;2024-01-06T02:59:57;37.10;32.35;40.53;;
66747;Laerm;53658;50.742;10.864;2024-01-06T03:02:23;37.12;30.89;40.43;;
66747;Laerm;53658;50.742;10.864;2024-01-06T03:04:49;37.11;31.68;40.23;;
66747;Laerm;53658;50.742;10.864;2024-01-06T03:07:15;37.12;32.93;40.03;;
66747;Laerm;53658;50.742;10.864;2024-01-06T03:09:41;37.14;32.93;39.92;;
66747;Laerm;53658;50.742;10.864;2024-01-06T03:12:07;37.14;32.93;40.13;;
66747;Laerm;53658;50.742;10.864;2024-01-06T03:14:34;37.13;30.89;40.03;;
66747;Laerm;53658;50.742;10.864;2024-01-06T03:17:00;37.16;32.00;40.03;;
66747;Laerm;53658;50.742;10.864;2024-01-06T03:19:26;37.18;32.35;40.03;;
66747;Laerm;53658;50.742;10.864;2024-01-06T03:21:53;37.19;32.93;39.92;;
66747;Laerm;53658;50.742;10.864;2024-01-06T03:24:22;37.19;31.68;40.03;;
66747;Laerm;53658;50.742;10.864;2024-01-06T03:26:48;37.19;33.44;39.92;;
66747;Laerm;53658;50.742;10.864;2024-01-06T03:29:14;37.18;32.35;40.13;;
66747;Laerm;53658;50.742;10.864;2024-01-06T03:31:46;37.19;31.68;39.81;;
66747;Laerm;53658;50.742;10.864;2024-01-06T03:34:13;37.21;30.89;40.43;;
66747;Laerm;53658;50.742;10.864;2024-01-06T03:36:39;37.20;32.35;39.81;;
66747;Laerm;53658;50.742;10.864;2024-01-06T03:39:06;37.24;32.35;40.03;;
66747;Laerm;53658;50.742;10.864;2024-01-06T03:41:33;37.23;30.89;40.36;;
66747;Laerm;53658;50.742;10.864;2024-01-06T03:43:58;37.23;32.35;40.03;;
66747;Laerm;53658;50.742;10.864;2024-01-06T03:46:25;37.23;32.35;40.18;;
66747;Laerm;53658;50.742;10.864;2024-01-06T03:48:51;37.22;32.93;40.23;;
66747;Laerm;53658;50.742;10.864;2024-01-06T03:51:16;37.22;32.93;40.80;;
66747;Laerm;53658;50.742;10.864;2024-01-06T03:53:42;37.21;31.68;40.13;;
66747;Laerm;53658;50.742;10.864;2024-01-06T03:56:08;37.20;30.89;40.62;;
66747;Laerm;53658;50.742;10.864;2024-01-06T03:58:34;37.21;32.35;40.43;;
66747;Laerm;53658;50.742;10.864;2024-01-06T04:01:01;37.27;32.35;39.89;;
66747;Laerm;53658;50.742;10.864;2024-01-06T04:03:27;37.24;32.93;40.71;;
66747;Laerm;53658;50.742;10.864;2024-01-06T04:05:53;37.26;30.89;39.81;;
66747;Laerm;53658;50.742;10.864;2024-01-06T04:08:18;37.24;32.35;40.13;;
66747;Laerm;53658;50.742;10.864;2024-01-06T04:10:45;37.21;32.35;39.81;;
66747;Laerm;53658;50.742;10.864;2024-01-06T04:13:11;37.21;32.93;40.23;;
66747;Laerm;53658;50.742;10.864;2024-01-06T04:15:38;37.18;31.68;40.33;;
66747;Laerm;53658;50.742;10.864;2024-01-06T04:18:05;37.23;31.68;39.92;;
66747;Laerm;53658;50.742;10.864;2024-01-06T04:20:32;37.23;32.35;40.13;;
66747;Laerm;53658;50.742;10.864;2024-01-06T04:22:58;37.21;30.89;40.03;;
66747;Laerm;53658;50.742;10.864;2024-01-06T04:25:25;37.25;32.35;40.89;;
66747;Laerm;53658;50.742;10.864;2024-01-06T04:27:51;37.27;30.89;44.43;;
66747;Laerm;53658;50.742;10.864;2024-01-06T04:30:17;37.29;32.93;40.23;;
66747;Laerm;53658;50.742;10.864;2024-01-06T04:32:43;37.29;32.35;39.92;;
66747;Laerm;53658;50.742;10.864;2024-01-06T04:35:10;37.27;31.68;39.92;;
66747;Laerm;53658;50.742;10.864;2024-01-06T04:37:36;37.25;32.35;40.23;;
66747;Laerm;53658;50.742;10.864;2024-01-06T04:40:02;37.23;31.68;40.53;;
66747;Laerm;53658;50.742;10.864;2024-01-06T04:42:28;37.25;32.93;40.43;;
66747;Laerm;53658;50.742;10.864;2024-01-06T04:44:54;37.26;32.35;40.33;;
66747;Laerm;53658;50.742;10.864;2024-01-06T04:47:20;37.30;32.00;40.23;;
66747;Laerm;53658;50.742;10.864;2024-01-06T04:49:45;37.21;32.93;39.92;;
66747;Laerm;53658;50.742;10.864;2024-01-06T04:52:11;37.23;32.35;41.68;;
66747;Laerm;53658;50.742;10.864;2024-01-06T04:54:37;37.22;31.68;40.33;;
66747;Laerm;53658;50.742;10.864;2024-01-06T04:57:03;37.24;32.35;39.81;;
66747;Laerm;53658;50.742;10.864;2024-01-06T04:59:30;37.24;30.89;40.03;;
66747;Laerm;53658;50.742;10.864;2024-01-06T05:01:57;37.26;32.35;40.13;;
66747;Laerm;53658;50.742;10.864;2024-01-06T05:04:23;37.23;32.93;39.81;;
66747;Laerm;53658;50.742;10.864;2024-01-06T05:06:50;37.20;30.89;39.92;;
66747;Laerm;53658;50.742;10.864;2024-01-06T05:09:16;37.25;31.68;40.71;;
66747;Laerm;53658;50.742;10.864;2024-01-06T05:11:45;37.19;30.89;40.33;;
66747;Laerm;53658;50.742;10.864;2024-01-06T05:14:11;37.16;32.93;40.33;;
66747;Laerm;53658;50.742;10.864;2024-01-06T05:16:37;37.14;30.89;40.80;;
66747;Laerm;53658;50.742;10.864;2024-01-06T05:19:03;37.20;30.89;39.81;;
66747;Laerm;53658;50.742;10.864;2024-01-06T05:21:29;37.15;31.68;40.13;;
66747;Laerm;53658;50.742;10.864;2024-01-06T05:23:55;37.21;31.68;40.13;;
66747;Laerm;53658;50.742;10.864;2024-01-06T05:26:22;37.17;32.93;39.70;;
66747;Laerm;53658;50.742;10.864;2024-01-06T05:28:48;37.15;30.89;40.23;;
66747;Laerm;53658;50.742;10.864;2024-01-06T05:31:14;37.19;32.35;40.03;;
66747;Laerm;53658;50.742;10.864;2024-01-06T05:33:40;37.17;30.89;41.06;;
66747;Laerm;53658;50.742;10.864;2024-01-06T05:36:06;37.11;32.35;40.13;;
66747;Laerm;53658;50.742;10.864;2024-01-06T05:38:31;37.14;31.68;40.23;;
66747;Laerm;53658;50.742;10.864;2024-01-06T05:40:57;37.08;31.68;40.03;;
66747;Laerm;53658;50.742;10.864;2024-01-06T05:43:24;37.09;31.68;40.71;;
66747;Laerm;53658;50.742;10.864;2024-01-06T05:45:49;37.07;31.68;39.92;;
66747;Laerm;53658;50.742;10.864;2024-01-06T05:48:15;37.08;30.89;40.03;;
66747;Laerm;53658;50.742;10.864;2024-01-06T05:50:41;37.08;31.68;39.81;;
66747;Laerm;53658;50.742;10.864;2024-01-06T05:53:07;37.11;31.68;40.13;;
66747;Laerm;53658;50.742;10.864;2024-01-06T05:55:33;37.05;31.68;40.33;;
66747;Laerm;53658;50.742;10.864;2024-01-06T05:57:59;37.07;31.68;40.03;;
66747;Laerm;53658;50.742;10.864;2024-01-06T06:00:26;37.03;30.89;39.81;;
66747;Laerm;53658;50.742;10.864;2024-01-06T06:02:52;37.01;31.68;40.23;;
66747;Laerm;53658;50.742;10.864;2024-01-06T06:05:18;37.04;31.68;40.53;;
66747;Laerm;53658;50.742;10.864;2024-01-06T06:07:45;37.02;32.35;40.62;;
66747;Laerm;53658;50.742;10.864;2024-01-06T06:10:11;37.06;32.35;40.03;;
66747;Laerm;53658;50.742;10.864;2024-01-06T06:12:38;37.05;32.35;40.62;;
66747;Laerm;53658;50.742;10.864;2024-01-06T06:15:05;37.01;31.68;40.23;;
66747;Laerm;53658;50.742;10.864;2024-01-06T06:17:32;37.03;31.68;39.92;;
66747;Laerm;53658;50.742;10.864;2024-01-06T06:19:58;37.04;31.68;40.43;;
66747;Laerm;53658;50.742;10.864;2024-01-06T06:22:26;37.05;30.89;39.92;;
66747;Laerm;53658;50.742;10.864;2024-01-06T06:25:02;37.06;31.68;39.92;;
66747;Laerm;53658;50.742;10.864;2024-01-06T06:27:29;37.05;30.89;39.81;;
66747;Laerm;53658;50.742;10.864;2024-01-06T06:29:55;37.04;31.68;40.43;;
66747;Laerm;53658;50.742;10.864;2024-01-06T06:32:22;37.02;29.92;39.92;;
66747;Laerm;53658;50.742;10.864;2024-01-06T06:34:47;37.04;31.68;40.33;;
66747;Laerm;53658;50.742;10.864;2024-01-06T06:37:13;37.01;31.68;39.81;;
66747;Laerm;53658;50.742;10.864;2024-01-06T06:39:39;37.05;31.68;40.13;;
66747;Laerm;53658;50.742;10.864;2024-01-06T06:42:05;37.05;30.89;40.23;;
66747;Laerm;53658;50.742;10.864;2024-01-06T06:44:31;37.05;32.35;39.70;;
66747;Laerm;53658;50.742;10.864;2024-01-06T06:46:57;37.04;32.93;39.70;;
66747;Laerm;53658;50.742;10.864;2024-01-06T06:49:23;37.06;32.35;40.03;;
66747;Laerm;53658;50.742;10.864;2024-01-06T06:51:49;37.11;32.93;40.33;;
66747;Laerm;53658;50.742;10.864;2024-01-06T06:54:16;37.07;32.35;39.81;;
66747;Laerm;53658;50.742;10.864;2024-01-06T06:56:42;37.10;32.35;39.92;;
66747;Laerm;53658;50.742;10.864;2024-01-06T06:59:08;37.07;31.68;39.68;;
66747;Laerm;53658;50.742;10.864;2024-01-06T07:01:34;37.09;31.68;40.03;;
66747;Laerm;53658;50.742;10.864;2024-01-06T07:04:01;37.08;32.35;39.92;;
66747;Laerm;53658;50.742;10.864;2024-01-06T07:06:28;37.06;32.35;40.13;;
66747;Laerm;53658;50.742;10.864;2024-01-06T07:08:55;37.10;32.00;39.70;;
66747;Laerm;53658;50.742;10.864;2024-01-06T07:11:20;37.09;31.68;40.13;;
66747;Laerm;53658;50.742;10.864;2024-01-06T07:13:47;37.12;31.68;40.03;;
66747;Laerm;53658;50.742;10.864;2024-01-06T07:16:12;37.13;31.68;41.75;;
66747;Laerm;53658;50.742;10.864;2024-01-06T07:18:38;37.11;31.68;40.03;;
66747;Laerm;53658;50.742;10.864;2024-01-06T07:21:05;37.13;32.35;39.81;;
66747;Laerm;53658;50.742;10.864;2024-01-06T07:23:34;37.10;32.35;39.92;;
66747;Laerm;53658;50.742;10.864;2024-01-06T07:26:00;37.12;32.35;40.03;;
66747;Laerm;53658;50.742;10.864;2024-01-06T07:28:26;37.11;32.35;40.33;;
66747;Laerm;53658;50.742;10.864;2024-01-06T07:30:52;37.15;30.89;40.03;;
66747;Laerm;53658;50.742;10.864;2024-01-06T07:33:19;37.15;32.93;40.03;;
66747;Laerm;53658;50.742;10.864;2024-01-06T07:35:44;37.14;32.93;39.92;;
66747;Laerm;53658;50.742;10.864;2024-01-06T07:38:12;37.16;32.35;40.33;;
66747;Laerm;53658;50.742;10.864;2024-01-06T07:40:38;37.17;32.35;40.62;;
66747;Laerm;53658;50.742;10.864;2024-01-06T07:43:04;37.16;31.68;42.98;;
66747;Laerm;53658;50.742;10.864;2024-01-06T07:45:32;37.15;31.68;40.03;;
66747;Laerm;53658;50.742;10.864;2024-01-06T07:47:59;37.14;30.89;40.13;;
66747;Laerm;53658;50.742;10.864;2024-01-06T07:50:25;37.15;32.35;39.92;;
66747;Laerm;53658;50.742;10.864;2024-01-06T07:52:51;37.16;32.93;40.53;;
66747;Laerm;53658;50.742;10.864;2024-01-06T07:55:17;37.15;31.68;40.03;;
66747;Laerm;53658;50.742;10.864;2024-01-06T07:57:44;37.18;32.00;39.92;;
66747;Laerm;53658;50.742;10.864;2024-01-06T08:00:10;37.16;31.33;40.13;;
66747;Laerm;53658;50.742;10.864;2024-01-06T08:02:42;37.14;32.35;40.03;;
66747;Laerm;53658;50.742;10.864;2024-01-06T08:05:09;37.16;31.68;40.43;;
66747;Laerm;53658;50.742;10.864;2024-01-06T08:07:35;37.15;30.89;40.03;;
66747;Laerm;53658;50.742;10.864;2024-01-06T08:10:01;37.17;32.35;39.99;;
66747;Laerm;53658;50.742;10.864;2024-01-06T08:12:30;37.12;32.35;40.03;;
66747;Laerm;53658;50.742;10.864;2024-01-06T08:14:56;37.10;31.68;40.43;;
66747;Laerm;53658;50.742;10.864;2024-01-06T08:17:22;37.12;30.89;40.13;;
66747;Laerm;53658;50.742;10.864;2024-01-06T08:19:48;37.11;31.68;40.43;;
66747;Laerm;53658;50.742;10.864;2024-01-06T08:22:14;37.11;31.68;40.43;;
66747;Laerm;53658;50.742;10.864;2024-01-06T08:24:39;37.09;31.68;39.92;;
66747;Laerm;53658;50.742;10.864;2024-01-06T08:27:05;37.07;31.68;40.03;;
66747;Laerm;53658;50.742;10.864;2024-01-06T08:29:31;37.14;32.35;39.81;;
66747;Laerm;53658;50.742;10.864;2024-01-06T08:31:57;37.13;31.68;40.13;;
66747;Laerm;53658;50.742;10.864;2024-01-06T08:34:23;37.10;31.68;40.23;;
66747;Laerm;53658;50.742;10.864;2024-01-06T08:36:49;37.09;30.89;40.03;;
66747;Laerm;53658;50.742;10.864;2024-01-06T08:39:16;37.13;30.89;40.03;;
66747;Laerm;53658;50.742;10.864;2024-01-06T08:41:42;45.34;5.00;80.82;;
66747;Laerm;53658;50.742;10.864;2024-01-06T08:44:08;37.06;31.68;39.92;;
66747;Laerm;53658;50.742;10.864;2024-01-06T08:46:34;37.04;32.00;39.81;;
66747;Laerm;53658;50.742;10.864;2024-01-06T08:49:00;37.09;32.35;44.47;;
66747;Laerm;53658;50.742;10.864;2024-01-06T08:51:26;37.08;29.57;39.70;;
66747;Laerm;53658;50.742;10.864;2024-01-06T08:53:52;37.07;31.68;40.33;;
66747;Laerm;53658;50.742;10.864;2024-01-06T08:56:19;37.05;32.35;40.03;;
66747;Laerm;53658;50.742;10.864;2024-01-06T08:58:45;37.21;31.68;58.54;;
66747;Laerm;53658;50.742;10.864;2024-01-06T09:01:12;37.09;30.89;39.81;;
66747;Laerm;53658;50.742;10.864;2024-01-06T09:03:39;37.04;30.89;40.27;;
66747;Laerm;53658;50.742;10.864;2024-01-06T09:06:05;37.05;32.35;39.81;;
66747;Laerm;53658;50.742;10.864;2024-01-06T09:08:31;37.08;29.92;40.13;;
66747;Laerm;53658;50.742;10.864;2024-01-06T09:10:56;37.06;32.35;40.03;;
66747;Laerm;53658;50.742;10.864;2024-01-06T09:13:24;37.06;31.68;40.33;;
66747;Laerm;53658;50.742;10.864;2024-01-06T09:15:51;37.04;31.68;40.53;;
66747;Laerm;53658;50.742;10.864;2024-01-06T09:18:17;37.05;32.35;39.99;;
66747;Laerm;53658;50.742;10.864;2024-01-06T09:20:43;37.02;32.00;40.13;;
66747;Laerm;53658;50.742;10.864;2024-01-06T09:23:09;37.05;29.92;40.71;;
66747;Laerm;53658;50.742;10.864;2024-01-06T09:25:36;37.02;31.68;39.70;;
66747;Laerm;53658;50.742;10.864;2024-01-06T09:28:02;37.07;30.89;40.13;;
66747;Laerm;53658;50.742;10.864;2024-01-06T09:30:28;37.06;32.35;39.81;;
66747;Laerm;53658;50.742;10.864;2024-01-06T09:32:54;37.04;31.68;40.43;;
66747;Laerm;53658;50.742;10.864;2024-01-06T09:35:19;37.05;31.68;39.92;;
66747;Laerm;53658;50.742;10.864;2024-01-06T09:37:46;37.02;29.57;46.73;;
66747;Laerm;53658;50.742;10.864;2024-01-06T09:40:13;37.04;31.68;39.92;;
66747;Laerm;53658;50.742;10.864;2024-01-06T09:42:40;37.05;31.68;40.23;;
66747;Laerm;53658;50.742;10.864;2024-01-06T09:45:07;37.05;31.68;39.92;;
66747;Laerm;53658;50.742;10.864;2024-01-06T09:47:34;36.99;30.89;39.81;;
66747;Laerm;53658;50.742;10.864;2024-01-06T09:50:02;37.03;30.89;40.03;;
66747;Laerm;53658;50.742;10.864;2024-01-06T09:52:32;37.13;31.68;42.41;;
66747;Laerm;53658;50.742;10.864;2024-01-06T09:54:59;37.39;33.44;40.43;;
66747;Laerm;53658;50.742;10.864;2024-01-06T09:57:26;37.70;32.93;48.12;;
66747;Laerm;53658;50.742;10.864;2024-01-06T09:59:52;37.89;34.69;40.43;;
66747;Laerm;53658;50.742;10.864;2024-01-06T10:02:18;38.10;35.04;42.82;;
66747;Laerm;53658;50.742;10.864;2024-01-06T10:04:46;38.13;33.90;41.68;;
66747;Laerm;53658;50.742;10.864;2024-01-06T10:07:12;38.20;35.36;40.71;;
66747;Laerm;53658;50.742;10.864;2024-01-06T10:09:42;38.28;34.69;40.71;;
66747;Laerm;53658;50.742;10.864;2024-01-06T10:12:08;38.46;34.69;41.22;;
66747;Laerm;53658;50.742;10.864;2024-01-06T10:14:35;38.60;35.36;40.89;;
66747;Laerm;53658;50.742;10.864;2024-01-06T10:17:01;38.81;35.94;40.71;;
66747;Laerm;53658;50.742;10.864;2024-01-06T10:19:28;39.13;36.20;40.98;;
66747;Laerm;53658;50.742;10.864;2024-01-06T10:21:54;39.41;36.91;41.06;;
66747;Laerm;53658;50.742;10.864;2024-01-06T10:24:20;39.54;36.45;41.46;;
66747;Laerm;53658;50.742;10.864;2024-01-06T10:26:46;39.55;36.91;41.68;;
66747;Laerm;53658;50.742;10.864;2024-01-06T10:29:15;39.52;37.12;41.38;;
66747;Laerm;53658;50.742;10.864;2024-01-06T10:31:41;39.54;37.12;41.61;;
66747;Laerm;53658;50.742;10.864;2024-01-06T10:34:07;39.54;36.69;41.61;;
66747;Laerm;53658;50.742;10.864;2024-01-06T10:36:33;39.53;37.12;41.53;;
66747;Laerm;53658;50.742;10.864;2024-01-06T10:38:59;39.55;37.12;41.53;;
66747;Laerm;53658;50.742;10.864;2024-01-06T10:41:29;39.58;36.91;41.53;;
66747;Laerm;53658;50.742;10.864;2024-01-06T10:43:58;39.65;37.12;41.68;;
66747;Laerm;53658;50.742;10.864;2024-01-06T10:46:28;39.60;36.69;41.30;;
66747;Laerm;53658;50.742;10.864;2024-01-06T10:48:55;39.61;37.32;41.46;;
66747;Laerm;53658;50.742;10.864;2024-01-06T10:51:23;39.61;37.32;42.16;;
66747;Laerm;53658;50.742;10.864;2024-01-06T10:53:50;39.57;36.69;41.22;;
66747;Laerm;53658;50.742;10.864;2024-01-06T10:56:17;39.50;36.91;41.68;;
66747;Laerm;53658;50.742;10.864;2024-01-06T10:58:48;39.42;37.12;41.61;;
66747;Laerm;53658;50.742;10.864;2024-01-06T11:01:22;39.36;36.20;41.30;;
66747;Laerm;53658;50.742;10.864;2024-01-06T11:03:54;39.34;36.20;41.22;;
66747;Laerm;53658;50.742;10.864;2024-01-06T11:06:23;39.34;37.12;41.38;;
66747;Laerm;53658;50.742;10.864;2024-01-06T11:08:54;39.37;36.91;41.14;;
66747;Laerm;53658;50.742;10.864;2024-01-06T11:11:23;39.34;36.45;41.38;;
66747;Laerm;53658;50.742;10.864;2024-01-06T11:13:49;39.34;36.20;41.06;;
66747;Laerm;53658;50.742;10.864;2024-01-06T11:16:35;39.39;36.91;41.30;;
66747;Laerm;53658;50.742;10.864;2024-01-06T11:19:02;39.37;36.69;41.22;;
66747;Laerm;53658;50.742;10.864;2024-01-06T11:21:33;39.43;36.69;41.06;;
66747;Laerm;53658;50.742;10.864;2024-01-06T11:26:45;39.49;36.91;41.22;;
66747;Laerm;53658;50.742;10.864;2024-01-06T11:29:11;39.61;37.70;41.19;;
66747;Laerm;53658;50.742;10.864;2024-01-06T11:31:37;39.68;37.52;41.38;;
66747;Laerm;53658;50.742;10.864;2024-01-06T11:34:32;39.74;37.70;41.33;;
66747;Laerm;53658;50.742;10.864;2024-01-06T11:37:02;39.67;37.52;41.22;;
66747;Laerm;53658;50.742;10.864;2024-01-06T11:39:38;39.71;37.12;41.38;;
66747;Laerm;53658;50.742;10.864;2024-01-06T11:42:10;39.85;37.70;41.53;;
66747;Laerm;53658;50.742;10.864;2024-01-06T11:44:43;39.73;37.70;41.46;;
66747;Laerm;53658;50.742;10.864;2024-01-06T11:47:12;39.95;37.52;41.61;;
66747;Laerm;53658;50.742;10.864;2024-01-06T11:49:38;39.93;37.52;41.46;;
66747;Laerm;53658;50.742;10.864;2024-01-06T11:52:04;40.11;37.88;41.61;;
66747;Laerm;53658;50.742;10.864;2024-01-06T11:54:31;40.13;38.05;41.61;;
66747;Laerm;53658;50.742;10.864;2024-01-06T11:56:57;40.26;38.37;41.75;;
66747;Laerm;53658;50.742;10.864;2024-01-06T11:59:23;40.18;37.88;41.82;;
66747;Laerm;53658;50.742;10.864;2024-01-06T12:01:49;40.13;38.37;41.75;;
66747;Laerm;53658;50.742;10.864;2024-01-06T12:04:17;40.23;38.37;41.68;;
66747;Laerm;53658;50.742;10.864;2024-01-06T12:06:43;40.40;38.81;41.89;;
66747;Laerm;53658;50.742;10.864;2024-01-06T12:09:12;40.35;38.21;41.75;;
66747;Laerm;53658;50.742;10.864;2024-01-06T12:11:42;40.53;38.81;41.96;;
66747;Laerm;53658;50.742;10.864;2024-01-06T12:14:10;40.58;38.81;41.89;;
66747;Laerm;53658;50.742;10.864;2024-01-06T12:16:36;40.68;39.21;42.29;;
66747;Laerm;53658;50.742;10.864;2024-01-06T12:19:02;40.80;38.95;42.16;;
66747;Laerm;53658;50.742;10.864;2024-01-06T12:21:29;40.65;38.37;42.29;;
66747;Laerm;53658;50.742;10.864;2024-01-06T12:24:16;40.59;38.95;41.96;;
66747;Laerm;53658;50.742;10.864;2024-01-06T12:26:51;40.49;38.81;42.09;;
66747;Laerm;53658;50.742;10.864;2024-01-06T12:29:17;40.54;38.95;42.03;;
66747;Laerm;53658;50.742;10.864;2024-01-06T12:31:44;40.25;38.37;41.82;;
66747;Laerm;53658;50.742;10.864;2024-01-06T12:34:10;39.97;38.05;41.68;;
66747;Laerm;53658;50.742;10.864;2024-01-06T12:36:37;39.86;37.88;41.38;;
66747;Laerm;53658;50.742;10.864;2024-01-06T12:39:04;39.84;37.88;41.68;;
66747;Laerm;53658;50.742;10.864;2024-01-06T12:41:30;39.96;37.52;41.61;;
66747;Laerm;53658;50.742;10.864;2024-01-06T12:44:01;39.80;37.88;41.61;;
66747;Laerm;53658;50.742;10.864;2024-01-06T12:46:27;39.88;37.88;41.38;;
66747;Laerm;53658;50.742;10.864;2024-01-06T12:48:53;39.98;38.05;41.46;;
66747;Laerm;53658;50.742;10.864;2024-01-06T12:51:19;39.87;37.70;41.61;;
66747;Laerm;53658;50.742;10.864;2024-01-06T12:53:45;39.75;37.32;41.61;;
66747;Laerm;53658;50.742;10.864;2024-01-06T12:56:11;39.80;37.88;41.46;;
66747;Laerm;53658;50.742;10.864;2024-01-06T12:58:41;39.99;37.88;41.48;;
66747;Laerm;53658;50.742;10.864;2024-01-06T13:01:06;40.14;38.21;41.61;;
66747;Laerm;53658;50.742;10.864;2024-01-06T13:03:33;40.10;38.05;41.68;;
66747;Laerm;53658;50.742;10.864;2024-01-06T13:06:00;40.07;38.05;41.53;;
66747;Laerm;53658;50.742;10.864;2024-01-06T13:08:27;40.22;38.05;41.89;;
66747;Laerm;53658;50.742;10.864;2024-01-06T13:10:56;40.30;38.37;41.75;;
66747;Laerm;53658;50.742;10.864;2024-01-06T13:13:22;40.37;38.67;41.89;;
66747;Laerm;53658;50.742;10.864;2024-01-06T13:15:48;40.36;38.52;41.75;;
66747;Laerm;53658;50.742;10.864;2024-01-06T13:18:14;40.37;38.67;41.53;;
66747;Laerm;53658;50.742;10.864;2024-01-06T13:20:43;40.35;38.37;41.68;;
66747;Laerm;53658;50.742;10.864;2024-01-06T13:23:09;40.35;38.37;42.22;;
66747;Laerm;53658;50.742;10.864;2024-01-06T13:25:37;40.27;38.67;42.03;;
66747;Laerm;53658;50.742;10.864;2024-01-06T13:28:07;40.23;38.37;41.61;;
66747;Laerm;53658;50.742;10.864;2024-01-06T13:30:34;40.22;38.52;41.82;;
66747;Laerm;53658;50.742;10.864;2024-01-06T13:33:00;40.08;38.21;41.68;;